Maursund — LMKE — position and weather

sailwx.info

Track history (hours):
 
Tides and Currents Weather Stations Pressure Air Temp Water Temp Dewpoint Dewpoint Depression Visibility Wind Speed Wind Dir Waves Ship Positions

Maursund

Last reported at 2018-Jun-15 15:50 UTC. Time now 2018-Jun-20 20:37 UTC.
Position N 57°26' W 005°55'.

Length 61 m; draft 2 m.

Type: Tanker. MMSI: 259320000.

Date/timePositionNaut miles runAvg speedWind from/ knotsBaromVisibWave heightAir tempDewpointWater temp
2018-Jun-15 15:50N 57°26' W 005°55'3 9.5
2018-Jun-15 15:28N 57°23' W 005°52'4 7.3
2018-Jun-15 14:59N 57°20' W 005°47'1 3.0
2018-Jun-15 14:29N 57°21' W 005°45'2 3.8
2018-Jun-15 14:00N 57°22' W 005°42'3 6.0
2018-Jun-15 13:30N 57°24' W 005°38'0 0.4
2018-Jun-15 13:00N 57°24' W 005°38'0 0.0
2018-Jun-15 12:28N 57°24' W 005°38'0 0.0
2018-Jun-15 11:57N 57°24' W 005°38'0 0.3
2018-Jun-15 11:30N 57°24' W 005°38'510.4
2018-Jun-15 11:00N 57°20' W 005°43'3 6.1
2018-Jun-15 10:28N 57°17' W 005°42'1 1.9
2018-Jun-15 10:00N 57°17' W 005°40'0 0.1
2018-Jun-15 09:29N 57°17' W 005°40'0 0.0
2018-Jun-15 08:56N 57°17' W 005°40'0 0.1
2018-Jun-15 08:29N 57°17' W 005°40'0 0.0
2018-Jun-15 07:59N 57°17' W 005°40'0 0.0
2018-Jun-15 07:26N 57°17' W 005°40'0 0.0
2018-Jun-15 06:59N 57°17' W 005°40'0 0.0
2018-Jun-15 06:20N 57°17' W 005°40'0 0.0
2018-Jun-15 05:59N 57°17' W 005°40'0 0.0
2018-Jun-15 05:29N 57°17' W 005°40'0 0.0
2018-Jun-15 04:59N 57°17' W 005°40'0 0.0
2018-Jun-15 04:29N 57°17' W 005°40'0 0.0
2018-Jun-15 03:56N 57°17' W 005°40'0 0.0
2018-Jun-15 03:29N 57°17' W 005°40'0 0.0
2018-Jun-15 02:59N 57°17' W 005°40'0 0.0
2018-Jun-15 02:29N 57°17' W 005°40'0 0.0
2018-Jun-15 01:58N 57°17' W 005°40'0 0.0
2018-Jun-15 01:29N 57°17' W 005°40'0 0.0
2018-Jun-15 00:58N 57°17' W 005°40'0 0.0
2018-Jun-15 00:29N 57°17' W 005°40'0 0.0
2018-Jun-15 00:00N 57°17' W 005°40'0 0.1
2018-Jun-14 23:28N 57°17' W 005°40'0 0.0
2018-Jun-14 22:59N 57°17' W 005°40'0 0.1
2018-Jun-14 22:28N 57°17' W 005°40'0 0.0
2018-Jun-14 21:58N 57°17' W 005°40'0 0.0
2018-Jun-14 21:29N 57°17' W 005°40'0 0.0
2018-Jun-14 20:58N 57°17' W 005°40'0 0.0
2018-Jun-14 20:28N 57°17' W 005°40'0 0.0
2018-Jun-14 19:58N 57°17' W 005°40'0 0.0
2018-Jun-14 19:29N 57°17' W 005°40'0 0.1
2018-Jun-14 19:00N 57°17' W 005°40'0 0.0
2018-Jun-14 18:29N 57°17' W 005°40'0 0.0
2018-Jun-14 17:59N 57°17' W 005°40'0 0.0
2018-Jun-14 17:30N 57°17' W 005°40'0 0.5
2018-Jun-14 17:01N 57°17' W 005°41'0 0.4
2018-Jun-14 16:28N 57°17' W 005°40'2 5.0
2018-Jun-14 15:58N 57°17' W 005°45'4 8.2
2018-Jun-14 15:30N 57°20' W 005°43'4 8.2
2018-Jun-14 15:01N 57°23' W 005°38'0 0.2
2018-Jun-14 14:29N 57°23' W 005°38'1 1.5
2018-Jun-14 13:59N 57°23' W 005°39'0 0.8
2018-Jun-14 13:30N 57°23' W 005°39'510.3
2018-Jun-14 12:58N 57°19' W 005°45'3 7.0
2018-Jun-14 12:30N 57°16' W 005°42'1 1.4
2018-Jun-14 11:58N 57°17' W 005°40'0 0.0
2018-Jun-14 11:28N 57°17' W 005°40'0 0.0
2018-Jun-14 10:58N 57°17' W 005°40'0 0.0
2018-Jun-14 10:28N 57°17' W 005°40'0 0.0
2018-Jun-14 09:58N 57°17' W 005°40'0 0.0
2018-Jun-14 09:28N 57°17' W 005°40'0 0.0
2018-Jun-14 08:58N 57°17' W 005°40'0 0.0
2018-Jun-14 08:28N 57°17' W 005°40'0 0.0
2018-Jun-14 07:58N 57°17' W 005°40'0 0.1
2018-Jun-14 07:28N 57°17' W 005°40'0 0.0
2018-Jun-14 06:58N 57°17' W 005°40'0 0.1
2018-Jun-14 06:28N 57°17' W 005°40'0 0.0
2018-Jun-14 05:58N 57°17' W 005°40'0 0.0
2018-Jun-14 05:28N 57°17' W 005°40'0 0.1
2018-Jun-14 04:58N 57°17' W 005°40'0 0.0
2018-Jun-14 04:28N 57°17' W 005°40'0 0.0
2018-Jun-14 03:58N 57°17' W 005°40'0 0.1
2018-Jun-14 03:28N 57°17' W 005°40'0 0.1
2018-Jun-14 02:58N 57°17' W 005°40'0 0.0
2018-Jun-14 02:25N 57°17' W 005°40'0 0.0
2018-Jun-14 01:58N 57°17' W 005°40'0 0.0
2018-Jun-14 01:28N 57°17' W 005°40'0 0.0
2018-Jun-14 00:58N 57°17' W 005°40'0 0.0
2018-Jun-14 00:28N 57°17' W 005°40'0 0.0
2018-Jun-13 23:58N 57°17' W 005°40'0 0.0
2018-Jun-13 23:30N 57°17' W 005°40'0 0.1
2018-Jun-13 22:58N 57°17' W 005°40'0 0.0
2018-Jun-13 22:30N 57°17' W 005°40'0 0.0
2018-Jun-13 21:58N 57°17' W 005°40'0 0.0
2018-Jun-13 21:29N 57°17' W 005°40'0 0.0
2018-Jun-13 21:00N 57°17' W 005°40'0 0.0
2018-Jun-13 20:29N 57°17' W 005°40'0 0.0
2018-Jun-13 20:00N 57°17' W 005°40'0 0.0
2018-Jun-13 19:28N 57°17' W 005°40'0 0.0
2018-Jun-13 18:59N 57°17' W 005°40'0 0.0
2018-Jun-13 18:30N 57°17' W 005°40'0 0.0
2018-Jun-13 17:58N 57°17' W 005°40'0 0.0
2018-Jun-13 17:30N 57°17' W 005°40'0 0.0
2018-Jun-13 16:58N 57°17' W 005°40'0 0.0
2018-Jun-13 16:29N 57°17' W 005°40'0 0.2
2018-Jun-13 16:00N 57°17' W 005°41'3 5.8
2018-Jun-13 15:28N 57°19' W 005°45'3 7.1
2018-Jun-13 14:59N 57°21' W 005°41'3 6.1
2018-Jun-13 14:28N 57°24' W 005°38'0 0.0
2018-Jun-13 13:59N 57°24' W 005°38'0 0.0
2018-Jun-13 13:27N 57°24' W 005°38'0 0.0
2018-Jun-13 12:59N 57°24' W 005°38'0 0.0
2018-Jun-13 12:30N 57°24' W 005°38'0 0.1
2018-Jun-13 11:58N 57°24' W 005°38'0 0.0
2018-Jun-13 11:29N 57°24' W 005°38'0 0.0
2018-Jun-13 11:00N 57°24' W 005°38'0 0.1
2018-Jun-13 10:30N 57°24' W 005°38'0 0.0
2018-Jun-13 09:59N 57°24' W 005°38'0 0.0
2018-Jun-13 09:30N 57°24' W 005°38'0 0.4
2018-Jun-13 08:58N 57°24' W 005°38'0 0.1
2018-Jun-13 08:30N 57°24' W 005°38'610.3
2018-Jun-13 07:58N 57°19' W 005°44'3 5.4
2018-Jun-13 07:29N 57°17' W 005°43'0 0.0
2018-Jun-13 06:59N 57°17' W 005°43'0 0.0
2018-Jun-13 06:30N 57°17' W 005°43'0 0.0
2018-Jun-13 05:58N 57°17' W 005°43'2 3.1
2018-Jun-13 05:28N 57°17' W 005°46'3 6.8
2018-Jun-13 05:00N 57°20' W 005°48'3 6.6
2018-Jun-13 04:29N 57°23' W 005°52'3 6.9
2018-Jun-13 04:00N 57°26' W 005°54'  
2018-Jun-08 12:56N 57°27' W 005°55'410.1
2018-Jun-08 12:30N 57°23' W 005°52'5 9.1
2018-Jun-08 11:58N 57°21' W 005°43'4 8.0
2018-Jun-08 11:26N 57°24' W 005°38'0 0.3
2018-Jun-08 10:59N 57°24' W 005°37'0 0.1
2018-Jun-08 10:29N 57°24' W 005°37'0 0.4
2018-Jun-08 09:59N 57°24' W 005°37'0 0.3
2018-Jun-08 09:30N 57°24' W 005°37'0 0.4
2018-Jun-08 08:59N 57°24' W 005°38'0 0.0
2018-Jun-08 08:30N 57°24' W 005°38'0 0.0
2018-Jun-08 08:00N 57°24' W 005°38'0 0.0
2018-Jun-08 07:28N 57°24' W 005°38'0 0.4
2018-Jun-08 06:59N 57°24' W 005°38'4 7.1
2018-Jun-08 06:30N 57°21' W 005°42'4 7.8
2018-Jun-08 06:00N 57°18' W 005°45'3 5.6
2018-Jun-08 05:30N 57°17' W 005°41'0 0.0
2018-Jun-08 04:42N 57°17' W 005°41'0 0.1
2018-Jun-08 04:30N 57°17' W 005°41'0 0.0
2018-Jun-08 04:00N 57°17' W 005°41'0 0.0
2018-Jun-08 03:30N 57°17' W 005°41'0 0.0
2018-Jun-08 02:54N 57°17' W 005°41'0 0.0
2018-Jun-08 02:30N 57°17' W 005°41'0 0.0
2018-Jun-08 02:00N 57°17' W 005°41'0 0.0
2018-Jun-08 01:30N 57°17' W 005°41'0 0.0
2018-Jun-08 01:00N 57°17' W 005°41'0 0.0
2018-Jun-08 00:30N 57°17' W 005°41'0 0.0
2018-Jun-08 00:00N 57°17' W 005°41'0 0.1
2018-Jun-07 23:30N 57°17' W 005°41'0 0.0
2018-Jun-07 23:00N 57°17' W 005°41'0 0.0
2018-Jun-07 22:30N 57°17' W 005°41'0 0.1
2018-Jun-07 22:00N 57°17' W 005°40'0 0.0
2018-Jun-07 21:30N 57°17' W 005°40'0 0.0
2018-Jun-07 20:58N 57°17' W 005°40'0 0.0
2018-Jun-07 20:27N 57°17' W 005°40'0 0.0
2018-Jun-07 20:00N 57°17' W 005°40'0 0.0
2018-Jun-07 19:30N 57°17' W 005°40'0 0.0
2018-Jun-07 19:00N 57°17' W 005°40'0 0.0
2018-Jun-07 18:30N 57°17' W 005°40'0 0.0
2018-Jun-07 17:54N 57°17' W 005°40'0 0.0
2018-Jun-07 17:29N 57°17' W 005°40'0 0.0
2018-Jun-07 16:59N 57°17' W 005°40'0 0.0
2018-Jun-07 16:30N 57°17' W 005°40'0 0.0
2018-Jun-07 15:58N 57°17' W 005°40'0 0.0
2018-Jun-07 15:29N 57°17' W 005°40'0 0.0
2018-Jun-07 14:55N 57°17' W 005°40'0 0.0
2018-Jun-07 14:29N 57°17' W 005°40'0 0.0
2018-Jun-07 13:58N 57°17' W 005°40'0 0.0
2018-Jun-07 13:29N 57°17' W 005°40'0 0.0
2018-Jun-07 13:00N 57°17' W 005°40'0 0.0
2018-Jun-07 12:30N 57°17' W 005°40'0 0.1
2018-Jun-07 11:58N 57°17' W 005°41'0 0.0
2018-Jun-07 11:30N 57°17' W 005°41'0 0.0
2018-Jun-07 10:58N 57°17' W 005°41'2 4.0
2018-Jun-07 10:20N 57°17' W 005°45'3 7.0
2018-Jun-07 09:59N 57°19' W 005°44'4 7.5
2018-Jun-07 09:28N 57°22' W 005°40'2 3.9
2018-Jun-07 08:57N 57°24' W 005°38'0 0.0
2018-Jun-07 08:28N 57°24' W 005°38'0 0.0
2018-Jun-07 07:59N 57°24' W 005°38'0 0.0
2018-Jun-07 07:29N 57°24' W 005°38'0 0.0
2018-Jun-07 06:59N 57°24' W 005°38'0 0.0
2018-Jun-07 06:30N 57°24' W 005°38'0 0.3
2018-Jun-07 05:59N 57°24' W 005°38'3 6.7
2018-Jun-07 05:30N 57°21' W 005°42'4 8.8
2018-Jun-07 05:00N 57°17' W 005°46'3 5.3
2018-Jun-07 04:28N 57°17' W 005°40'0 0.0
2018-Jun-07 04:00N 57°17' W 005°40'0 0.0
2018-Jun-07 03:28N 57°17' W 005°40'0 0.0
2018-Jun-07 03:00N 57°17' W 005°40'0 0.0
2018-Jun-07 02:28N 57°17' W 005°40'0 0.0
2018-Jun-07 02:00N 57°17' W 005°40'0 0.0
2018-Jun-07 01:26N 57°17' W 005°40'0 0.0
2018-Jun-07 01:00N 57°17' W 005°40'0 0.0
2018-Jun-07 00:25N 57°17' W 005°40'0 0.1
2018-Jun-06 23:55N 57°17' W 005°40'0 0.0
2018-Jun-06 23:24N 57°17' W 005°40'0 0.0
2018-Jun-06 23:00N 57°17' W 005°40'0 0.0
2018-Jun-06 22:27N 57°17' W 005°40'0 0.0
2018-Jun-06 22:00N 57°17' W 005°40'0 0.0
2018-Jun-06 21:27N 57°17' W 005°40'0 0.0
2018-Jun-06 20:59N 57°17' W 005°40'0 0.0
2018-Jun-06 20:29N 57°17' W 005°40'0 0.0
2018-Jun-06 20:00N 57°17' W 005°40'0 0.0
2018-Jun-06 19:29N 57°17' W 005°40'0 0.0
2018-Jun-06 18:59N 57°17' W 005°40'0 0.0
2018-Jun-06 18:28N 57°17' W 005°40'0 0.0
2018-Jun-06 17:59N 57°17' W 005°40'0 0.0
2018-Jun-06 17:26N 57°17' W 005°40'0 0.0
2018-Jun-06 17:00N 57°17' W 005°40'1 2.0
2018-Jun-06 16:19N 57°17' W 005°43'0 0.0
2018-Jun-06 16:00N 57°17' W 005°43'0 0.0
2018-Jun-06 15:28N 57°17' W 005°43'0 0.0
2018-Jun-06 15:00N 57°17' W 005°43'0 0.0
2018-Jun-06 14:28N 57°17' W 005°43'0 0.0
2018-Jun-06 13:56N 57°17' W 005°43'0 0.0
2018-Jun-06 13:29N 57°17' W 005°43'0 0.0
2018-Jun-06 12:58N 57°17' W 005°43'0 0.0
2018-Jun-06 12:26N 57°17' W 005°43'0 0.0
2018-Jun-06 11:57N 57°17' W 005°43'0 0.0
2018-Jun-06 11:25N 57°17' W 005°43'0 0.0
2018-Jun-06 11:00N 57°17' W 005°43'0 0.0
2018-Jun-06 10:27N 57°17' W 005°43'0 0.0
2018-Jun-06 09:59N 57°17' W 005°43'0 0.0
2018-Jun-06 09:28N 57°17' W 005°43'0 0.0
2018-Jun-06 08:54N 57°17' W 005°43'0 0.0
2018-Jun-06 08:27N 57°17' W 005°43'0 0.0
2018-Jun-06 07:57N 57°17' W 005°43'0 0.0
2018-Jun-06 07:29N 57°17' W 005°43'0 0.0
2018-Jun-06 06:58N 57°17' W 005°43'0 0.0
2018-Jun-06 06:21N 57°17' W 005°43'0 0.0
2018-Jun-06 05:56N 57°17' W 005°43'0 0.0
2018-Jun-06 05:27N 57°17' W 005°43'0 0.0
2018-Jun-06 04:58N 57°17' W 005°43'0 0.0
2018-Jun-06 04:26N 57°17' W 005°43'0 0.0
2018-Jun-06 03:59N 57°17' W 005°43'0 0.0
2018-Jun-06 03:24N 57°17' W 005°43'0 0.0
2018-Jun-06 02:58N 57°17' W 005°43'0 0.0
2018-Jun-06 02:27N 57°17' W 005°43'0 0.0
2018-Jun-06 01:57N 57°17' W 005°43'0 0.0
2018-Jun-06 01:29N 57°17' W 005°43'0 0.0
2018-Jun-06 01:00N 57°17' W 005°43'0 0.0
2018-Jun-06 00:28N 57°17' W 005°43'0 0.0
2018-Jun-05 23:56N 57°17' W 005°43'0 0.0
2018-Jun-05 23:29N 57°17' W 005°43'0 0.0
2018-Jun-05 22:59N 57°17' W 005°43'0 0.0
2018-Jun-05 22:19N 57°17' W 005°43'0 0.0
2018-Jun-05 21:58N 57°17' W 005°43'0 0.0
2018-Jun-05 21:29N 57°17' W 005°43'0 0.0
2018-Jun-05 20:58N 57°17' W 005°43'2 5.2
2018-Jun-05 20:30N 57°18' W 005°47'5 9.8
2018-Jun-05 20:00N 57°22' W 005°51'  
Track history (hours):
 
Tides and Currents Weather Stations Pressure Air Temp Water Temp Dewpoint Dewpoint Depression Visibility Wind Speed Wind Dir Waves Ship Positions

Maursund

Last reported at 2018-Jun-15 15:50 UTC. Time now 2018-Jun-20 20:37 UTC.
Position N 57°26' W 005°55'.

Length 61 m; draft 2 m.

Type: Tanker. MMSI: 259320000.

Date/timePositionNaut miles runAvg speedWind from/ knotsBaromVisibWave heightAir tempDewpointWater temp
2018-Jun-15 15:50N 57°26' W 005°55'3 9.5
2018-Jun-15 15:28N 57°23' W 005°52'4 7.3
2018-Jun-15 14:59N 57°20' W 005°47'1 3.0
2018-Jun-15 14:29N 57°21' W 005°45'2 3.8
2018-Jun-15 14:00N 57°22' W 005°42'3 6.0
2018-Jun-15 13:30N 57°24' W 005°38'0 0.4
2018-Jun-15 13:00N 57°24' W 005°38'0 0.0
2018-Jun-15 12:28N 57°24' W 005°38'0 0.0
2018-Jun-15 11:57N 57°24' W 005°38'0 0.3
2018-Jun-15 11:30N 57°24' W 005°38'510.4
2018-Jun-15 11:00N 57°20' W 005°43'3 6.1
2018-Jun-15 10:28N 57°17' W 005°42'1 1.9
2018-Jun-15 10:00N 57°17' W 005°40'0 0.1
2018-Jun-15 09:29N 57°17' W 005°40'0 0.0
2018-Jun-15 08:56N 57°17' W 005°40'0 0.1
2018-Jun-15 08:29N 57°17' W 005°40'0 0.0
2018-Jun-15 07:59N 57°17' W 005°40'0 0.0
2018-Jun-15 07:26N 57°17' W 005°40'0 0.0
2018-Jun-15 06:59N 57°17' W 005°40'0 0.0
2018-Jun-15 06:20N 57°17' W 005°40'0 0.0
2018-Jun-15 05:59N 57°17' W 005°40'0 0.0
2018-Jun-15 05:29N 57°17' W 005°40'0 0.0
2018-Jun-15 04:59N 57°17' W 005°40'0 0.0
2018-Jun-15 04:29N 57°17' W 005°40'0 0.0
2018-Jun-15 03:56N 57°17' W 005°40'0 0.0
2018-Jun-15 03:29N 57°17' W 005°40'0 0.0
2018-Jun-15 02:59N 57°17' W 005°40'0 0.0
2018-Jun-15 02:29N 57°17' W 005°40'0 0.0
2018-Jun-15 01:58N 57°17' W 005°40'0 0.0
2018-Jun-15 01:29N 57°17' W 005°40'0 0.0
2018-Jun-15 00:58N 57°17' W 005°40'0 0.0
2018-Jun-15 00:29N 57°17' W 005°40'0 0.0
2018-Jun-15 00:00N 57°17' W 005°40'0 0.1
2018-Jun-14 23:28N 57°17' W 005°40'0 0.0
2018-Jun-14 22:59N 57°17' W 005°40'0 0.1
2018-Jun-14 22:28N 57°17' W 005°40'0 0.0
2018-Jun-14 21:58N 57°17' W 005°40'0 0.0
2018-Jun-14 21:29N 57°17' W 005°40'0 0.0
2018-Jun-14 20:58N 57°17' W 005°40'0 0.0
2018-Jun-14 20:28N 57°17' W 005°40'0 0.0
2018-Jun-14 19:58N 57°17' W 005°40'0 0.0
2018-Jun-14 19:29N 57°17' W 005°40'0 0.1
2018-Jun-14 19:00N 57°17' W 005°40'0 0.0
2018-Jun-14 18:29N 57°17' W 005°40'0 0.0
2018-Jun-14 17:59N 57°17' W 005°40'0 0.0
2018-Jun-14 17:30N 57°17' W 005°40'0 0.5
2018-Jun-14 17:01N 57°17' W 005°41'0 0.4
2018-Jun-14 16:28N 57°17' W 005°40'2 5.0
2018-Jun-14 15:58N 57°17' W 005°45'4 8.2
2018-Jun-14 15:30N 57°20' W 005°43'4 8.2
2018-Jun-14 15:01N 57°23' W 005°38'0 0.2
2018-Jun-14 14:29N 57°23' W 005°38'1 1.5
2018-Jun-14 13:59N 57°23' W 005°39'0 0.8
2018-Jun-14 13:30N 57°23' W 005°39'510.3
2018-Jun-14 12:58N 57°19' W 005°45'3 7.0
2018-Jun-14 12:30N 57°16' W 005°42'1 1.4
2018-Jun-14 11:58N 57°17' W 005°40'0 0.0
2018-Jun-14 11:28N 57°17' W 005°40'0 0.0
2018-Jun-14 10:58N 57°17' W 005°40'0 0.0
2018-Jun-14 10:28N 57°17' W 005°40'0 0.0
2018-Jun-14 09:58N 57°17' W 005°40'0 0.0
2018-Jun-14 09:28N 57°17' W 005°40'0 0.0
2018-Jun-14 08:58N 57°17' W 005°40'0 0.0
2018-Jun-14 08:28N 57°17' W 005°40'0 0.0
2018-Jun-14 07:58N 57°17' W 005°40'0 0.1
2018-Jun-14 07:28N 57°17' W 005°40'0 0.0
2018-Jun-14 06:58N 57°17' W 005°40'0 0.1
2018-Jun-14 06:28N 57°17' W 005°40'0 0.0
2018-Jun-14 05:58N 57°17' W 005°40'0 0.0
2018-Jun-14 05:28N 57°17' W 005°40'0 0.1
2018-Jun-14 04:58N 57°17' W 005°40'0 0.0
2018-Jun-14 04:28N 57°17' W 005°40'0 0.0
2018-Jun-14 03:58N 57°17' W 005°40'0 0.1
2018-Jun-14 03:28N 57°17' W 005°40'0 0.1
2018-Jun-14 02:58N 57°17' W 005°40'0 0.0
2018-Jun-14 02:25N 57°17' W 005°40'0 0.0
2018-Jun-14 01:58N 57°17' W 005°40'0 0.0
2018-Jun-14 01:28N 57°17' W 005°40'0 0.0
2018-Jun-14 00:58N 57°17' W 005°40'0 0.0
2018-Jun-14 00:28N 57°17' W 005°40'0 0.0
2018-Jun-13 23:58N 57°17' W 005°40'0 0.0
2018-Jun-13 23:30N 57°17' W 005°40'0 0.1
2018-Jun-13 22:58N 57°17' W 005°40'0 0.0
2018-Jun-13 22:30N 57°17' W 005°40'0 0.0
2018-Jun-13 21:58N 57°17' W 005°40'0 0.0
2018-Jun-13 21:29N 57°17' W 005°40'0 0.0
2018-Jun-13 21:00N 57°17' W 005°40'0 0.0
2018-Jun-13 20:29N 57°17' W 005°40'0 0.0
2018-Jun-13 20:00N 57°17' W 005°40'0 0.0
2018-Jun-13 19:28N 57°17' W 005°40'0 0.0
2018-Jun-13 18:59N 57°17' W 005°40'0 0.0
2018-Jun-13 18:30N 57°17' W 005°40'0 0.0
2018-Jun-13 17:58N 57°17' W 005°40'0 0.0
2018-Jun-13 17:30N 57°17' W 005°40'0 0.0
2018-Jun-13 16:58N 57°17' W 005°40'0 0.0
2018-Jun-13 16:29N 57°17' W 005°40'0 0.2
2018-Jun-13 16:00N 57°17' W 005°41'3 5.8
2018-Jun-13 15:28N 57°19' W 005°45'3 7.1
2018-Jun-13 14:59N 57°21' W 005°41'3 6.1
2018-Jun-13 14:28N 57°24' W 005°38'0 0.0
2018-Jun-13 13:59N 57°24' W 005°38'0 0.0
2018-Jun-13 13:27N 57°24' W 005°38'0 0.0
2018-Jun-13 12:59N 57°24' W 005°38'0 0.0
2018-Jun-13 12:30N 57°24' W 005°38'0 0.1
2018-Jun-13 11:58N 57°24' W 005°38'0 0.0
2018-Jun-13 11:29N 57°24' W 005°38'0 0.0
2018-Jun-13 11:00N 57°24' W 005°38'0 0.1
2018-Jun-13 10:30N 57°24' W 005°38'0 0.0
2018-Jun-13 09:59N 57°24' W 005°38'0 0.0
2018-Jun-13 09:30N 57°24' W 005°38'0 0.4
2018-Jun-13 08:58N 57°24' W 005°38'0 0.1
2018-Jun-13 08:30N 57°24' W 005°38'610.3
2018-Jun-13 07:58N 57°19' W 005°44'3 5.4
2018-Jun-13 07:29N 57°17' W 005°43'0 0.0
2018-Jun-13 06:59N 57°17' W 005°43'0 0.0
2018-Jun-13 06:30N 57°17' W 005°43'0 0.0
2018-Jun-13 05:58N 57°17' W 005°43'2 3.1
2018-Jun-13 05:28N 57°17' W 005°46'3 6.8
2018-Jun-13 05:00N 57°20' W 005°48'3 6.6
2018-Jun-13 04:29N 57°23' W 005°52'3 6.9
2018-Jun-13 04:00N 57°26' W 005°54'  
2018-Jun-08 12:56N 57°27' W 005°55'410.1
2018-Jun-08 12:30N 57°23' W 005°52'5 9.1
2018-Jun-08 11:58N 57°21' W 005°43'4 8.0
2018-Jun-08 11:26N 57°24' W 005°38'0 0.3
2018-Jun-08 10:59N 57°24' W 005°37'0 0.1
2018-Jun-08 10:29N 57°24' W 005°37'0 0.4
2018-Jun-08 09:59N 57°24' W 005°37'0 0.3
2018-Jun-08 09:30N 57°24' W 005°37'0 0.4
2018-Jun-08 08:59N 57°24' W 005°38'0 0.0
2018-Jun-08 08:30N 57°24' W 005°38'0 0.0
2018-Jun-08 08:00N 57°24' W 005°38'0 0.0
2018-Jun-08 07:28N 57°24' W 005°38'0 0.4
2018-Jun-08 06:59N 57°24' W 005°38'4 7.1
2018-Jun-08 06:30N 57°21' W 005°42'4 7.8
2018-Jun-08 06:00N 57°18' W 005°45'3 5.6
2018-Jun-08 05:30N 57°17' W 005°41'0 0.0
2018-Jun-08 04:42N 57°17' W 005°41'0 0.1
2018-Jun-08 04:30N 57°17' W 005°41'0 0.0
2018-Jun-08 04:00N 57°17' W 005°41'0 0.0
2018-Jun-08 03:30N 57°17' W 005°41'0 0.0
2018-Jun-08 02:54N 57°17' W 005°41'0 0.0
2018-Jun-08 02:30N 57°17' W 005°41'0 0.0
2018-Jun-08 02:00N 57°17' W 005°41'0 0.0
2018-Jun-08 01:30N 57°17' W 005°41'0 0.0
2018-Jun-08 01:00N 57°17' W 005°41'0 0.0
2018-Jun-08 00:30N 57°17' W 005°41'0 0.0
2018-Jun-08 00:00N 57°17' W 005°41'0 0.1
2018-Jun-07 23:30N 57°17' W 005°41'0 0.0
2018-Jun-07 23:00N 57°17' W 005°41'0 0.0
2018-Jun-07 22:30N 57°17' W 005°41'0 0.1
2018-Jun-07 22:00N 57°17' W 005°40'0 0.0
2018-Jun-07 21:30N 57°17' W 005°40'0 0.0
2018-Jun-07 20:58N 57°17' W 005°40'0 0.0
2018-Jun-07 20:27N 57°17' W 005°40'0 0.0
2018-Jun-07 20:00N 57°17' W 005°40'0 0.0
2018-Jun-07 19:30N 57°17' W 005°40'0 0.0
2018-Jun-07 19:00N 57°17' W 005°40'0 0.0
2018-Jun-07 18:30N 57°17' W 005°40'0 0.0
2018-Jun-07 17:54N 57°17' W 005°40'0 0.0
2018-Jun-07 17:29N 57°17' W 005°40'0 0.0
2018-Jun-07 16:59N 57°17' W 005°40'0 0.0
2018-Jun-07 16:30N 57°17' W 005°40'0 0.0
2018-Jun-07 15:58N 57°17' W 005°40'0 0.0
2018-Jun-07 15:29N 57°17' W 005°40'0 0.0
2018-Jun-07 14:55N 57°17' W 005°40'0 0.0
2018-Jun-07 14:29N 57°17' W 005°40'0 0.0
2018-Jun-07 13:58N 57°17' W 005°40'0 0.0
2018-Jun-07 13:29N 57°17' W 005°40'0 0.0
2018-Jun-07 13:00N 57°17' W 005°40'0 0.0
2018-Jun-07 12:30N 57°17' W 005°40'0 0.1
2018-Jun-07 11:58N 57°17' W 005°41'0 0.0
2018-Jun-07 11:30N 57°17' W 005°41'0 0.0
2018-Jun-07 10:58N 57°17' W 005°41'2 4.0
2018-Jun-07 10:20N 57°17' W 005°45'3 7.0
2018-Jun-07 09:59N 57°19' W 005°44'4 7.5
2018-Jun-07 09:28N 57°22' W 005°40'2 3.9
2018-Jun-07 08:57N 57°24' W 005°38'0 0.0
2018-Jun-07 08:28N 57°24' W 005°38'0 0.0
2018-Jun-07 07:59N 57°24' W 005°38'0 0.0
2018-Jun-07 07:29N 57°24' W 005°38'0 0.0
2018-Jun-07 06:59N 57°24' W 005°38'0 0.0
2018-Jun-07 06:30N 57°24' W 005°38'0 0.3
2018-Jun-07 05:59N 57°24' W 005°38'3 6.7
2018-Jun-07 05:30N 57°21' W 005°42'4 8.8
2018-Jun-07 05:00N 57°17' W 005°46'3 5.3
2018-Jun-07 04:28N 57°17' W 005°40'0 0.0
2018-Jun-07 04:00N 57°17' W 005°40'0 0.0
2018-Jun-07 03:28N 57°17' W 005°40'0 0.0
2018-Jun-07 03:00N 57°17' W 005°40'0 0.0
2018-Jun-07 02:28N 57°17' W 005°40'0 0.0
2018-Jun-07 02:00N 57°17' W 005°40'0 0.0
2018-Jun-07 01:26N 57°17' W 005°40'0 0.0
2018-Jun-07 01:00N 57°17' W 005°40'0 0.0
2018-Jun-07 00:25N 57°17' W 005°40'0 0.1
2018-Jun-06 23:55N 57°17' W 005°40'0 0.0
2018-Jun-06 23:24N 57°17' W 005°40'0 0.0
2018-Jun-06 23:00N 57°17' W 005°40'0 0.0
2018-Jun-06 22:27N 57°17' W 005°40'0 0.0
2018-Jun-06 22:00N 57°17' W 005°40'0 0.0
2018-Jun-06 21:27N 57°17' W 005°40'0 0.0
2018-Jun-06 20:59N 57°17' W 005°40'0 0.0
2018-Jun-06 20:29N 57°17' W 005°40'0 0.0
2018-Jun-06 20:00N 57°17' W 005°40'0 0.0
2018-Jun-06 19:29N 57°17' W 005°40'0 0.0
2018-Jun-06 18:59N 57°17' W 005°40'0 0.0
2018-Jun-06 18:28N 57°17' W 005°40'0 0.0
2018-Jun-06 17:59N 57°17' W 005°40'0 0.0
2018-Jun-06 17:26N 57°17' W 005°40'0 0.0
2018-Jun-06 17:00N 57°17' W 005°40'1 2.0
2018-Jun-06 16:19N 57°17' W 005°43'0 0.0
2018-Jun-06 16:00N 57°17' W 005°43'0 0.0
2018-Jun-06 15:28N 57°17' W 005°43'0 0.0
2018-Jun-06 15:00N 57°17' W 005°43'0 0.0
2018-Jun-06 14:28N 57°17' W 005°43'0 0.0
2018-Jun-06 13:56N 57°17' W 005°43'0 0.0
2018-Jun-06 13:29N 57°17' W 005°43'0 0.0
2018-Jun-06 12:58N 57°17' W 005°43'0 0.0
2018-Jun-06 12:26N 57°17' W 005°43'0 0.0
2018-Jun-06 11:57N 57°17' W 005°43'0 0.0
2018-Jun-06 11:25N 57°17' W 005°43'0 0.0
2018-Jun-06 11:00N 57°17' W 005°43'0 0.0
2018-Jun-06 10:27N 57°17' W 005°43'0 0.0
2018-Jun-06 09:59N 57°17' W 005°43'0 0.0
2018-Jun-06 09:28N 57°17' W 005°43'0 0.0
2018-Jun-06 08:54N 57°17' W 005°43'0 0.0
2018-Jun-06 08:27N 57°17' W 005°43'0 0.0
2018-Jun-06 07:57N 57°17' W 005°43'0 0.0
2018-Jun-06 07:29N 57°17' W 005°43'0 0.0
2018-Jun-06 06:58N 57°17' W 005°43'0 0.0
2018-Jun-06 06:21N 57°17' W 005°43'0 0.0
2018-Jun-06 05:56N 57°17' W 005°43'0 0.0
2018-Jun-06 05:27N 57°17' W 005°43'0 0.0
2018-Jun-06 04:58N 57°17' W 005°43'0 0.0
2018-Jun-06 04:26N 57°17' W 005°43'0 0.0
2018-Jun-06 03:59N 57°17' W 005°43'0 0.0
2018-Jun-06 03:24N 57°17' W 005°43'0 0.0
2018-Jun-06 02:58N 57°17' W 005°43'0 0.0
2018-Jun-06 02:27N 57°17' W 005°43'0 0.0
2018-Jun-06 01:57N 57°17' W 005°43'0 0.0
2018-Jun-06 01:29N 57°17' W 005°43'0 0.0
2018-Jun-06 01:00N 57°17' W 005°43'0 0.0
2018-Jun-06 00:28N 57°17' W 005°43'0 0.0
2018-Jun-05 23:56N 57°17' W 005°43'0 0.0
2018-Jun-05 23:29N 57°17' W 005°43'0 0.0
2018-Jun-05 22:59N 57°17' W 005°43'0 0.0
2018-Jun-05 22:19N 57°17' W 005°43'0 0.0
2018-Jun-05 21:58N 57°17' W 005°43'0 0.0
2018-Jun-05 21:29N 57°17' W 005°43'0 0.0
2018-Jun-05 20:58N 57°17' W 005°43'2 5.2
2018-Jun-05 20:30N 57°18' W 005°47'5 9.8
2018-Jun-05 20:00N 57°22' W 005°51'  

Dump ship's entire track history